Time;durP1;ratioP1;P1;durP2;ratioP2;P2;SDS_P1;SDS_P2;PMS_P1;PMS_P2;Temp;Humidity;BMP_temperature;BMP_pressure;BME280_temperature;BME280_humidity;BME280_pressure;Samples;Min_cycle;Max_cycle;Signal;HPM_P1;HPM_P2
2022/12/21 00:01:43;;;;;;;102.25;30.02;;;8.70;99.90;;;;;;5017627;28;20061;-65
2022/12/21 00:04:10;;;;;;;105.05;31.67;;;8.60;99.90;;;;;;5020389;28;20397;-65
2022/12/21 00:06:38;;;;;;;125.53;32.35;;;8.60;99.90;;;;;;4999921;28;20390;-66
2022/12/21 00:09:06;;;;;;;95.25;30.58;;;8.60;99.90;;;;;;5017173;28;20085;-65
2022/12/21 00:11:35;;;;;;;131.75;33.70;;;8.60;99.90;;;;;;5022742;28;20046;-65
2022/12/21 00:14:02;;;;;;;118.22;31.23;;;8.50;99.90;;;;;;5020803;28;20073;-65
2022/12/21 00:16:31;;;;;;;87.60;29.08;;;8.50;99.90;;;;;;5020095;28;20477;-65
2022/12/21 00:18:58;;;;;;;113.28;29.48;;;8.40;99.90;;;;;;5019317;28;20053;-65
2022/12/21 00:21:28;;;;;;;87.13;28.27;;;8.50;99.90;;;;;;5018430;28;20045;-66
2022/12/21 00:23:59;;;;;;;106.78;29.65;;;8.40;99.90;;;;;;5001914;28;20458;-66
2022/12/21 00:26:26;;;;;;;110.50;30.92;;;8.40;99.90;;;;;;5020547;28;20038;-67
2022/12/21 00:28:53;;;;;;;93.97;29.48;;;8.30;99.90;;;;;;5017048;28;20038;-64
2022/12/21 00:31:23;;;;;;;96.68;28.05;;;8.30;99.90;;;;;;5021388;28;20029;-65
2022/12/21 00:33:49;;;;;;;154.20;33.25;;;8.30;99.90;;;;;;5014590;28;20050;-65
2022/12/21 00:36:17;;;;;;;100.85;29.15;;;8.40;99.90;;;;;;5017992;28;20349;-65
2022/12/21 00:38:43;;;;;;;151.27;31.45;;;8.30;99.90;;;;;;5018534;28;20077;-65
2022/12/21 00:41:12;;;;;;;119.13;30.15;;;8.30;99.90;;;;;;5022558;28;20065;-65
2022/12/21 00:43:39;;;;;;;124.80;30.13;;;8.30;99.90;;;;;;5024366;28;20096;-65
2022/12/21 00:46:06;;;;;;;120.20;30.02;;;8.30;99.90;;;;;;5018525;28;20584;-64
2022/12/21 00:48:33;;;;;;;146.02;30.30;;;8.30;99.90;;;;;;5011605;28;20045;-65
2022/12/21 00:51:07;;;;;;;164.70;30.33;;;8.30;99.90;;;;;;5019239;28;20041;-65
2022/12/21 00:53:33;;;;;;;164.20;30.30;;;8.30;99.90;;;;;;5017466;28;20045;-65
2022/12/21 00:56:00;;;;;;;254.68;33.70;;;8.20;99.90;;;;;;5017502;28;20045;-65
2022/12/21 00:58:27;;;;;;;232.38;33.25;;;8.20;99.90;;;;;;5020778;28;20254;-65
2022/12/21 01:00:56;;;;;;;238.10;34.13;;;8.20;99.90;;;;;;5022030;28;20033;-66
2022/12/21 01:03:23;;;;;;;166.73;31.27;;;8.20;99.90;;;;;;5015722;28;20048;-65
2022/12/21 01:05:49;;;;;;;220.18;33.63;;;8.20;99.90;;;;;;5019556;28;20038;-65
2022/12/21 01:08:17;;;;;;;230.98;35.83;;;8.10;99.90;;;;;;5014819;28;20073;-66
2022/12/21 01:10:43;;;;;;;176.00;30.00;;;8.10;99.90;;;;;;5015402;28;20045;-65
2022/12/21 01:13:10;;;;;;;166.07;27.08;;;8.10;99.90;;;;;;5024180;28;20124;-65
2022/12/21 01:15:40;;;;;;;166.57;28.70;;;8.10;99.90;;;;;;5015831;28;20042;-65
2022/12/21 01:18:06;;;;;;;201.90;30.25;;;8.00;99.90;;;;;;5022335;28;20060;-65
2022/12/21 01:20:32;;;;;;;185.32;28.67;;;8.10;99.90;;;;;;5021794;28;20033;-65
2022/12/21 01:22:57;;;;;;;362.65;34.80;;;8.00;99.90;;;;;;5018147;28;20119;-65
2022/12/21 01:25:23;;;;;;;250.75;30.15;;;8.10;99.90;;;;;;5019751;28;20061;-66
2022/12/21 01:27:49;;;;;;;215.88;29.60;;;8.00;99.90;;;;;;5017112;28;20044;-65
2022/12/21 01:30:15;;;;;;;158.93;28.25;;;8.00;99.90;;;;;;5017095;28;20132;-65
2022/12/21 01:32:41;;;;;;;243.07;30.38;;;8.00;99.90;;;;;;5012953;28;20105;-65
2022/12/21 01:35:07;;;;;;;289.27;31.85;;;8.00;99.90;;;;;;5030312;28;20222;-65
2022/12/21 01:37:33;;;;;;;149.30;25.27;;;8.00;99.90;;;;;;5015839;28;20056;-64
2022/12/21 01:39:58;;;;;;;164.93;27.02;;;7.90;99.90;;;;;;5015437;28;20038;-65
2022/12/21 01:42:24;;;;;;;266.73;30.90;;;7.90;99.90;;;;;;5015685;28;20183;-65
2022/12/21 01:45:02;;;;;;;254.07;31.38;;;7.90;99.90;;;;;;5019123;28;20056;-65
2022/12/21 01:47:42;;;;;;;192.65;29.30;;;7.90;99.90;;;;;;5013245;28;20168;-65
2022/12/21 01:50:24;;;;;;;204.88;29.05;;;7.90;99.90;;;;;;5008079;28;20048;-65
2022/12/21 01:52:51;;;;;;;232.05;31.27;;;7.90;99.90;;;;;;5015943;28;20045;-65
2022/12/21 01:55:17;;;;;;;273.45;31.95;;;7.90;99.90;;;;;;5018719;28;20520;-65
2022/12/21 01:57:44;;;;;;;280.30;29.35;;;8.00;99.90;;;;;;5000020;28;20034;-65
2022/12/21 02:00:10;;;;;;;250.73;30.15;;;7.90;99.90;;;;;;5016408;28;20052;-66
2022/12/21 02:02:51;;;;;;;169.52;25.75;;;7.90;99.90;;;;;;5019113;28;20042;-65
2022/12/21 02:05:57;;;;;;;196.95;25.55;;;8.00;99.90;;;;;;5019116;28;20064;-66
2022/12/21 02:08:22;;;;;;;214.07;25.95;;;7.90;99.90;;;;;;5013519;28;20509;-65
2022/12/21 02:10:49;;;;;;;199.77;26.00;;;7.80;99.90;;;;;;5018045;28;20049;-64
2022/12/21 02:13:16;;;;;;;191.43;26.48;;;7.80;99.90;;;;;;5017079;28;20346;-65
2022/12/21 02:15:47;;;;;;;181.15;26.25;;;7.80;99.90;;;;;;5012832;28;20034;-65
2022/12/21 02:18:35;;;;;;;159.60;25.00;;;7.90;99.90;;;;;;5018722;28;20038;-66
2022/12/21 02:21:31;;;;;;;190.85;24.30;;;7.80;99.90;;;;;;5017435;28;20108;-65
2022/12/21 02:24:35;;;;;;;147.02;22.67;;;7.80;99.90;;;;;;5018649;28;20409;-66
2022/12/21 02:27:04;;;;;;;204.02;25.45;;;7.80;99.90;;;;;;5019091;28;20033;-65
2022/12/21 02:30:06;;;;;;;126.47;21.98;;;7.80;99.90;;;;;;5018352;28;20398;-65
2022/12/21 02:32:47;;;;;;;291.88;28.38;;;7.70;99.90;;;;;;5018944;28;20045;-64
2022/12/21 02:35:35;;;;;;;282.63;28.25;;;7.70;99.90;;;;;;5021095;28;20056;-64
2022/12/21 02:38:07;;;;;;;274.13;28.60;;;7.70;99.90;;;;;;5018506;28;20099;-64
2022/12/21 02:40:39;;;;;;;260.42;27.88;;;7.70;99.90;;;;;;5019622;28;20458;-66
2022/12/21 02:46:33;;;;;;;248.82;29.38;;;7.70;99.90;;;;;;5015565;28;20447;-65
2022/12/21 02:49:05;;;;;;;230.18;27.85;;;7.70;99.90;;;;;;5016296;28;20049;-64
2022/12/21 02:51:51;;;;;;;336.92;32.08;;;7.70;99.90;;;;;;5019509;28;20042;-65
2022/12/21 02:54:18;;;;;;;399.85;35.85;;;7.70;99.90;;;;;;5020936;28;20055;-65
2022/12/21 02:56:44;;;;;;;399.25;36.25;;;7.70;99.90;;;;;;5019698;28;20107;-65
2022/12/21 02:59:13;;;;;;;393.27;34.58;;;7.70;99.90;;;;;;5021704;28;20116;-65
2022/12/21 03:02:00;;;;;;;344.55;35.45;;;7.60;99.90;;;;;;5022648;28;20438;-65
2022/12/21 03:04:44;;;;;;;345.58;36.50;;;7.70;99.90;;;;;;5023201;28;20037;-67
2022/12/21 03:07:23;;;;;;;320.63;33.28;;;7.60;99.90;;;;;;5017705;28;20497;-66
2022/12/21 03:10:17;;;;;;;315.88;35.50;;;7.60;99.90;;;;;;5021714;28;20382;-66
2022/12/21 03:12:57;;;;;;;270.13;33.65;;;7.60;99.90;;;;;;5022870;28;20074;-65
2022/12/21 03:15:51;;;;;;;434.95;39.47;;;7.60;99.90;;;;;;5019380;28;20345;-64
2022/12/21 03:18:30;;;;;;;331.85;35.17;;;7.60;99.90;;;;;;5008904;28;20041;-65
2022/12/21 03:21:07;;;;;;;299.27;34.95;;;7.60;99.90;;;;;;5021464;28;20137;-65
2022/12/21 03:23:44;;;;;;;238.00;31.38;;;7.60;99.90;;;;;;5023607;28;20060;-65
2022/12/21 03:26:37;;;;;;;296.50;32.40;;;7.60;99.90;;;;;;5023394;28;20056;-65
2022/12/21 03:29:04;;;;;;;317.40;32.92;;;7.50;99.90;;;;;;5015318;28;20046;-65
2022/12/21 03:31:35;;;;;;;314.27;34.28;;;7.50;99.90;;;;;;5023336;28;20050;-64
2022/12/21 03:34:12;;;;;;;309.80;34.42;;;7.50;99.90;;;;;;5021470;28;20108;-65
2022/12/21 03:36:47;;;;;;;450.88;38.25;;;7.50;99.90;;;;;;5038961;28;20521;-65
2022/12/21 03:39:17;;;;;;;280.08;33.63;;;7.50;99.90;;;;;;5021174;28;20108;-64
2022/12/21 03:41:49;;;;;;;290.17;33.50;;;7.50;99.90;;;;;;5022812;28;20110;-65
2022/12/21 03:44:21;;;;;;;385.35;38.03;;;7.50;99.90;;;;;;5017525;28;20107;-65
2022/12/21 03:46:57;;;;;;;326.30;34.08;;;7.50;99.90;;;;;;5034555;28;20037;-65
2022/12/21 03:49:37;;;;;;;282.70;31.67;;;7.50;99.90;;;;;;5023159;28;20469;-64
2022/12/21 03:52:09;;;;;;;252.77;31.20;;;7.50;99.90;;;;;;5023622;28;20033;-65
2022/12/21 03:54:45;;;;;;;220.15;29.23;;;7.50;99.90;;;;;;5021191;28;20046;-65
2022/12/21 03:57:11;;;;;;;248.57;30.17;;;7.50;99.90;;;;;;5022468;28;20129;-66
2022/12/21 03:59:41;;;;;;;305.40;34.33;;;7.40;99.90;;;;;;5021387;28;20108;-64
2022/12/21 04:02:18;;;;;;;412.55;40.03;;;7.40;99.90;;;;;;5018864;28;20046;-66
2022/12/21 04:05:02;;;;;;;312.92;36.65;;;7.50;99.90;;;;;;5034842;28;20464;-65
2022/12/21 04:07:30;;;;;;;415.98;40.72;;;7.40;99.90;;;;;;5022173;28;20095;-65
2022/12/21 04:10:01;;;;;;;298.38;35.45;;;7.40;99.90;;;;;;5020840;28;20687;-64
2022/12/21 04:12:37;;;;;;;447.00;42.53;;;7.40;99.90;;;;;;5016088;28;20492;-64
2022/12/21 04:15:24;;;;;;;265.92;36.08;;;7.40;99.90;;;;;;5016213;28;20104;-65
2022/12/21 04:17:52;;;;;;;361.02;40.33;;;7.40;99.90;;;;;;5017259;28;20265;-65
2022/12/21 04:20:23;;;;;;;271.65;35.17;;;7.30;99.90;;;;;;5019673;28;20041;-65
2022/12/21 04:28:28;;;;;;;;;;;7.30;99.90;;;;;;5023824;28;20075;-64
2022/12/21 04:30:55;;;;;;;316.52;39.58;;;7.20;99.90;;;;;;5019628;28;20285;-65
2022/12/21 04:33:23;;;;;;;365.75;41.85;;;7.20;99.90;;;;;;5017371;28;20053;-65
2022/12/21 04:38:35;;;;;;;428.17;45.50;;;7.20;99.90;;;;;;5019315;28;20088;-64
2022/12/21 04:41:01;;;;;;;382.92;40.95;;;7.20;99.90;;;;;;5019767;28;20131;-66
2022/12/21 04:43:27;;;;;;;421.65;43.05;;;7.20;99.90;;;;;;5019464;28;20116;-66
2022/12/21 04:46:11;;;;;;;339.13;40.47;;;7.20;99.90;;;;;;5020070;28;20037;-65
2022/12/21 04:48:37;;;;;;;325.35;41.47;;;7.20;99.90;;;;;;5025301;28;20052;-65
2022/12/21 04:51:08;;;;;;;380.20;45.03;;;7.20;99.90;;;;;;5021400;28;20029;-65
2022/12/21 04:53:34;;;;;;;422.23;46.97;;;7.20;99.90;;;;;;5021510;28;20508;-66
2022/12/21 04:56:00;;;;;;;272.95;38.20;;;7.20;99.90;;;;;;5001481;28;20037;-65
2022/12/21 04:58:26;;;;;;;379.17;43.53;;;7.20;99.90;;;;;;5016030;28;20399;-65
2022/12/21 05:00:51;;;;;;;434.95;49.38;;;7.20;99.90;;;;;;5018478;28;20482;-65
2022/12/21 05:03:21;;;;;;;428.13;48.03;;;7.20;99.90;;;;;;5011218;28;20509;-65
2022/12/21 05:05:47;;;;;;;216.23;34.80;;;7.20;99.90;;;;;;5015183;28;20045;-65
2022/12/21 05:08:13;;;;;;;376.67;42.30;;;7.20;99.90;;;;;;5011950;28;20049;-65
2022/12/21 05:10:39;;;;;;;409.10;43.42;;;7.20;99.90;;;;;;5021748;28;20049;-65
2022/12/21 05:13:05;;;;;;;295.08;38.38;;;7.20;99.90;;;;;;5011125;28;20033;-65
2022/12/21 05:15:34;;;;;;;290.95;39.80;;;7.20;99.90;;;;;;5012916;28;20042;-65
2022/12/21 05:17:59;;;;;;;433.55;45.92;;;7.20;99.90;;;;;;5023945;28;20053;-65
2022/12/21 05:20:25;;;;;;;488.77;47.03;;;7.20;99.90;;;;;;5002500;28;20057;-65
2022/12/21 05:22:51;;;;;;;431.38;44.72;;;7.20;99.90;;;;;;5015214;28;20473;-64
2022/12/21 05:25:16;;;;;;;341.90;39.38;;;7.20;99.90;;;;;;5018890;28;20042;-65
2022/12/21 05:27:42;;;;;;;303.52;38.47;;;7.20;99.90;;;;;;5018795;28;20038;-65
2022/12/21 05:30:08;;;;;;;538.22;48.92;;;7.20;99.90;;;;;;5013313;28;20054;-66
2022/12/21 05:32:34;;;;;;;328.38;40.55;;;7.20;99.90;;;;;;5015269;28;20045;-64
2022/12/21 05:35:00;;;;;;;603.88;54.17;;;7.20;99.90;;;;;;5019693;28;20346;-65
2022/12/21 05:37:29;;;;;;;409.50;42.90;;;7.20;99.90;;;;;;5016411;28;20038;-65
2022/12/21 05:39:55;;;;;;;437.50;46.90;;;7.20;99.90;;;;;;5014269;28;20038;-66
2022/12/21 05:42:20;;;;;;;481.95;48.45;;;7.30;99.90;;;;;;5011667;28;21120;-64
2022/12/21 05:44:46;;;;;;;519.30;50.38;;;7.30;99.90;;;;;;5016146;28;20045;-65
2022/12/21 05:47:12;;;;;;;420.83;45.17;;;7.20;99.90;;;;;;5019245;28;20065;-65
2022/12/21 05:49:37;;;;;;;386.17;42.08;;;7.20;99.90;;;;;;5019480;28;20107;-64
2022/12/21 05:52:03;;;;;;;324.98;40.78;;;7.30;99.90;;;;;;5017953;28;20117;-65
2022/12/21 05:54:29;;;;;;;482.83;44.45;;;7.30;99.90;;;;;;5013112;28;20768;-65
2022/12/21 05:56:55;;;;;;;463.40;49.95;;;7.30;99.90;;;;;;5016410;28;20038;-64
2022/12/21 05:59:20;;;;;;;396.55;43.70;;;7.30;99.90;;;;;;5015825;28;20041;-64
2022/12/21 06:01:46;;;;;;;603.65;57.55;;;7.30;99.90;;;;;;5013429;28;20041;-65
2022/12/21 06:04:12;;;;;;;538.78;51.75;;;7.30;99.90;;;;;;5019341;28;20436;-65
2022/12/21 06:06:38;;;;;;;382.08;46.33;;;7.30;99.90;;;;;;5015446;28;20034;-66
2022/12/21 06:09:04;;;;;;;623.78;57.53;;;7.30;99.90;;;;;;5017029;28;20042;-64
2022/12/21 06:11:31;;;;;;;316.42;43.33;;;7.30;99.90;;;;;;5020409;28;20048;-64
2022/12/21 06:13:57;;;;;;;465.58;52.78;;;7.30;99.90;;;;;;5023321;28;20493;-64
2022/12/21 06:16:25;;;;;;;363.02;47.38;;;7.30;99.90;;;;;;5014890;28;20041;-64
2022/12/21 06:18:52;;;;;;;340.27;45.33;;;7.40;99.90;;;;;;5015250;28;20042;-65
2022/12/21 06:21:18;;;;;;;416.58;49.22;;;7.30;99.90;;;;;;5021144;28;20241;-65
2022/12/21 06:23:45;;;;;;;376.90;46.20;;;7.40;99.90;;;;;;5018559;28;20504;-65
2022/12/21 06:26:13;;;;;;;501.23;50.63;;;7.30;99.90;;;;;;5016656;28;20152;-65
2022/12/21 06:28:39;;;;;;;361.88;45.72;;;7.40;99.90;;;;;;5018353;28;20532;-65
2022/12/21 06:31:11;;;;;;;227.90;38.15;;;7.40;99.90;;;;;;5021553;28;20041;-64
2022/12/21 06:33:37;;;;;;;443.48;49.25;;;7.30;99.90;;;;;;5024833;28;20069;-65
2022/12/21 06:36:04;;;;;;;354.88;45.42;;;7.40;99.90;;;;;;5023278;28;20038;-65
2022/12/21 06:38:31;;;;;;;386.20;45.70;;;7.30;99.90;;;;;;5024303;28;20053;-64
2022/12/21 06:41:03;;;;;;;296.13;43.58;;;7.50;99.90;;;;;;5024809;28;20121;-64
2022/12/21 06:43:31;;;;;;;253.93;42.10;;;7.40;99.90;;;;;;5024889;28;20505;-65
2022/12/21 06:46:14;;;;;;;390.90;46.88;;;7.40;99.90;;;;;;5019164;28;20034;-65
2022/12/21 06:48:40;;;;;;;463.80;49.33;;;7.40;99.90;;;;;;5025019;28;20038;-65
2022/12/21 06:51:10;;;;;;;331.67;43.80;;;7.30;99.90;;;;;;5019380;28;20493;-64
2022/12/21 06:53:38;;;;;;;329.65;44.40;;;7.30;99.90;;;;;;5018460;28;20099;-64
2022/12/21 06:56:09;;;;;;;231.30;38.70;;;7.40;99.90;;;;;;5016078;28;20552;-65
2022/12/21 06:58:35;;;;;;;321.20;43.20;;;7.40;99.90;;;;;;5020020;28;20112;-64
2022/12/21 07:01:06;;;;;;;415.48;47.75;;;7.40;99.90;;;;;;5017438;28;20497;-64
2022/12/21 07:03:33;;;;;;;394.00;46.08;;;7.40;99.90;;;;;;5015311;28;20452;-64
2022/12/21 07:05:59;;;;;;;223.48;39.10;;;7.30;99.90;;;;;;5018455;28;20042;-66
2022/12/21 07:08:24;;;;;;;358.77;46.80;;;7.40;99.90;;;;;;5019332;28;20041;-66
2022/12/21 07:10:58;;;;;;;314.42;43.22;;;7.40;99.90;;;;;;5019434;28;20447;-64
2022/12/21 07:13:26;;;;;;;312.40;44.33;;;7.40;99.90;;;;;;5025209;28;20037;-65
2022/12/21 07:15:51;;;;;;;278.60;41.83;;;7.30;99.90;;;;;;5019046;28;20045;-64
2022/12/21 07:18:17;;;;;;;443.33;50.85;;;7.40;99.90;;;;;;5020825;28;20040;-64
2022/12/21 07:20:43;;;;;;;326.00;44.67;;;7.40;99.90;;;;;;5021028;28;20465;-65
2022/12/21 07:23:09;;;;;;;404.75;46.85;;;7.40;99.90;;;;;;5015794;28;20042;-64
2022/12/21 07:25:35;;;;;;;384.15;47.65;;;7.30;99.90;;;;;;5021030;28;20045;-64
2022/12/21 07:28:01;;;;;;;350.30;45.72;;;7.30;99.90;;;;;;5017854;28;20044;-65
2022/12/21 07:30:26;;;;;;;410.38;48.42;;;7.30;99.90;;;;;;5016324;28;20061;-65
2022/12/21 07:32:53;;;;;;;352.83;45.33;;;7.30;99.90;;;;;;5023028;28;20041;-65
2022/12/21 07:35:21;;;;;;;278.83;42.83;;;7.30;99.90;;;;;;5013826;28;20082;-65
2022/12/21 07:37:48;;;;;;;249.02;40.25;;;7.40;99.90;;;;;;5012993;28;20533;-65
2022/12/21 07:40:17;;;;;;;459.52;53.20;;;7.30;99.90;;;;;;5014885;28;20501;-65
2022/12/21 07:42:44;;;;;;;352.83;48.75;;;7.40;99.90;;;;;;5021015;28;20046;-66
2022/12/21 07:45:10;;;;;;;357.75;47.88;;;7.30;99.90;;;;;;5020019;28;20037;-64
2022/12/21 07:47:36;;;;;;;394.63;50.60;;;7.30;99.90;;;;;;5021387;28;20413;-65
2022/12/21 07:50:03;;;;;;;330.90;46.55;;;7.40;99.90;;;;;;5018788;28;20114;-65
2022/12/21 07:52:33;;;;;;;493.52;58.58;;;7.30;99.90;;;;;;5017523;28;20090;-65
2022/12/21 07:54:59;;;;;;;290.67;47.47;;;7.40;99.90;;;;;;5016347;28;20049;-65
2022/12/21 07:57:25;;;;;;;481.70;58.33;;;7.40;99.90;;;;;;5022701;28;20037;-65
2022/12/21 07:59:50;;;;;;;239.27;43.65;;;7.30;99.90;;;;;;5022724;28;20398;-64
2022/12/21 08:02:17;;;;;;;356.83;51.83;;;7.30;99.90;;;;;;5022959;28;20041;-65
2022/12/21 08:04:42;;;;;;;297.25;47.75;;;7.30;99.90;;;;;;5022514;28;20129;-65
2022/12/21 08:07:08;;;;;;;360.23;53.63;;;7.30;99.90;;;;;;5025940;28;20129;-65
2022/12/21 08:09:35;;;;;;;301.08;49.10;;;7.30;99.90;;;;;;5019685;28;20405;-65
2022/12/21 08:12:01;;;;;;;405.20;54.40;;;7.30;99.90;;;;;;5020239;28;20053;-64
2022/12/21 08:14:26;;;;;;;291.35;48.60;;;7.40;99.90;;;;;;5020041;28;20432;-65
2022/12/21 08:16:52;;;;;;;231.02;45.10;;;7.40;99.90;;;;;;5022860;28;20037;-64
2022/12/21 08:19:18;;;;;;;301.02;48.28;;;7.40;99.90;;;;;;5016333;28;20133;-64
2022/12/21 08:21:43;;;;;;;267.42;47.63;;;7.30;99.90;;;;;;5022618;28;20033;-65
2022/12/21 08:24:09;;;;;;;241.00;45.20;;;7.40;99.90;;;;;;5017467;28;20099;-64
2022/12/21 08:26:35;;;;;;;368.77;56.90;;;7.30;99.90;;;;;;5023944;28;20481;-65
2022/12/21 08:29:07;;;;;;;217.77;44.80;;;7.30;99.90;;;;;;5022534;28;20078;-64
2022/12/21 08:31:35;;;;;;;345.63;52.80;;;7.30;99.90;;;;;;5018872;28;20033;-64
2022/12/21 08:34:01;;;;;;;298.55;52.08;;;7.40;99.90;;;;;;5021175;28;20459;-64
2022/12/21 08:36:27;;;;;;;426.75;59.08;;;7.30;99.90;;;;;;5019737;28;20050;-65
2022/12/21 08:38:56;;;;;;;340.00;54.65;;;7.30;99.90;;;;;;5018239;28;20053;-64
2022/12/21 08:41:22;;;;;;;268.10;50.80;;;7.30;99.90;;;;;;5019720;28;20433;-64
2022/12/21 08:43:48;;;;;;;342.02;54.40;;;7.40;99.90;;;;;;5021626;28;20052;-64
2022/12/21 08:46:14;;;;;;;327.60;54.88;;;7.30;99.90;;;;;;5019435;28;20290;-64
2022/12/21 08:48:40;;;;;;;298.35;52.15;;;7.40;99.90;;;;;;5021123;28;20044;-64
2022/12/21 08:51:07;;;;;;;401.75;59.83;;;7.40;99.90;;;;;;5016002;28;20063;-64
2022/12/21 08:53:33;;;;;;;342.58;55.20;;;7.50;99.90;;;;;;5020226;28;20045;-65
2022/12/21 08:55:59;;;;;;;251.30;48.97;;;7.40;99.90;;;;;;5020095;28;20064;-64
2022/12/21 08:58:24;;;;;;;269.10;51.30;;;7.40;99.90;;;;;;5021273;28;20037;-65
2022/12/21 09:00:54;;;;;;;229.27;48.08;;;7.50;99.90;;;;;;5020059;28;20121;-64
2022/12/21 09:03:21;;;;;;;321.88;52.50;;;7.60;99.90;;;;;;5018426;28;20124;-64
2022/12/21 09:05:52;;;;;;;245.65;47.53;;;7.60;99.90;;;;;;5010360;28;20500;-65
2022/12/21 09:08:17;;;;;;;288.90;50.70;;;7.50;99.90;;;;;;5019355;28;20121;-64
2022/12/21 09:10:43;;;;;;;326.90;52.28;;;7.60;99.90;;;;;;5020991;28;20475;-64
2022/12/21 09:13:09;;;;;;;271.67;48.10;;;7.70;99.90;;;;;;5015658;28;20129;-64
2022/12/21 09:15:41;;;;;;;304.17;47.72;;;7.60;99.90;;;;;;5021505;28;20284;-65
2022/12/21 09:18:07;;;;;;;300.85;48.50;;;7.60;99.90;;;;;;5021478;28;20053;-64
2022/12/21 09:20:33;;;;;;;252.73;45.90;;;7.60;99.90;;;;;;5020193;28;20458;-64
2022/12/21 09:22:59;;;;;;;152.10;40.47;;;7.60;99.90;;;;;;5034715;28;20052;-64
2022/12/21 09:25:25;;;;;;;205.60;43.78;;;7.70;99.90;;;;;;5022300;28;20373;-64
2022/12/21 09:27:51;;;;;;;192.13;42.30;;;7.60;99.90;;;;;;5019946;28;20041;-64
2022/12/21 09:30:16;;;;;;;179.65;41.83;;;7.60;99.90;;;;;;5017841;28;20041;-64
2022/12/21 09:32:42;;;;;;;252.65;45.72;;;7.60;99.90;;;;;;5017777;28;20042;-64
2022/12/21 09:35:08;;;;;;;194.27;42.45;;;7.60;99.90;;;;;;5016591;28;20486;-64
2022/12/21 09:37:33;;;;;;;216.50;44.17;;;7.60;99.90;;;;;;5016944;28;20044;-64
2022/12/21 09:40:00;;;;;;;195.90;42.22;;;7.60;99.90;;;;;;5013972;28;20057;-64
2022/12/21 09:42:35;;;;;;;202.75;43.85;;;7.60;99.90;;;;;;5018568;28;20026;-64
2022/12/21 09:45:27;;;;;;;189.68;41.90;;;7.70;99.90;;;;;;5014967;28;20072;-64
2022/12/21 09:48:03;;;;;;;178.38;38.92;;;7.70;99.90;;;;;;5006444;28;20111;-64
2022/12/21 09:50:55;;;;;;;201.32;42.67;;;7.70;99.90;;;;;;5018022;28;20120;-64
2022/12/21 09:53:35;;;;;;;248.20;44.97;;;7.60;99.90;;;;;;5022343;28;20179;-64
2022/12/21 09:56:01;;;;;;;201.65;42.55;;;7.60;99.90;;;;;;5015313;28;20064;-64
2022/12/21 09:58:36;;;;;;;168.35;42.00;;;7.60;99.90;;;;;;5018470;28;20038;-63
2022/12/21 10:01:29;;;;;;;168.02;38.88;;;7.60;99.90;;;;;;5017565;28;20084;-64
2022/12/21 10:04:19;;;;;;;208.20;41.00;;;7.60;99.90;;;;;;5016233;28;20033;-64
2022/12/21 10:07:21;;;;;;;169.25;38.05;;;7.70;99.90;;;;;;5018499;28;20111;-64
2022/12/21 10:10:07;;;;;;;160.30;38.40;;;7.60;99.90;;;;;;5018061;28;20133;-64
2022/12/21 10:12:48;;;;;;;124.43;34.38;;;7.70;99.90;;;;;;5015477;28;20068;-63
2022/12/21 10:15:26;;;;;;;131.27;35.33;;;7.70;99.90;;;;;;5016477;28;20493;-64
2022/12/21 10:18:14;;;;;;;110.68;34.55;;;7.70;99.90;;;;;;5020475;28;20060;-64
2022/12/21 10:20:56;;;;;;;126.00;35.70;;;7.70;99.90;;;;;;5016541;28;20049;-64
2022/12/21 10:23:34;;;;;;;107.15;33.92;;;7.80;99.90;;;;;;5017076;28;20095;-64
2022/12/21 10:26:03;;;;;;;100.20;32.50;;;7.80;99.90;;;;;;5021773;28;20173;-64
2022/12/21 10:28:54;;;;;;;117.43;34.67;;;8.00;99.90;;;;;;5018748;28;20113;-64
2022/12/21 10:31:38;;;;;;;124.18;34.97;;;8.10;99.90;;;;;;5021536;28;20056;-65
2022/12/21 10:34:32;;;;;;;97.13;32.30;;;8.10;99.90;;;;;;5017362;28;20073;-64
2022/12/21 10:37:09;;;;;;;87.93;31.27;;;8.10;99.90;;;;;;5020980;28;20073;-63
2022/12/21 10:39:35;;;;;;;96.45;29.98;;;8.20;99.90;;;;;;5013574;28;20146;-64
2022/12/21 10:42:22;;;;;;;82.50;28.88;;;8.20;99.90;;;;;;5016540;28;20176;-64
2022/12/21 10:44:51;;;;;;;84.40;29.33;;;8.20;99.90;;;;;;5015250;28;20042;-64
2022/12/21 10:47:19;;;;;;;88.93;31.98;;;8.20;99.90;;;;;;5017529;28;20037;-64
2022/12/21 10:50:10;;;;;;;87.35;29.73;;;8.20;99.90;;;;;;5013772;28;20038;-64
2022/12/21 10:52:41;;;;;;;83.85;29.92;;;8.40;99.90;;;;;;5016218;28;20037;-63
2022/12/21 10:55:19;;;;;;;83.65;30.25;;;8.50;99.90;;;;;;5018646;28;20091;-64
2022/12/21 10:58:16;;;;;;;85.60;29.13;;;8.50;99.90;;;;;;5014187;28;20038;-65
2022/12/21 11:01:02;;;;;;;83.70;30.35;;;8.50;99.90;;;;;;5008464;28;20053;-64
2022/12/21 11:03:34;;;;;;;83.50;29.45;;;8.50;99.90;;;;;;5013327;28;20038;-64
2022/12/21 11:06:14;;;;;;;75.28;29.38;;;8.50;99.90;;;;;;5022397;28;20049;-64
2022/12/21 11:08:48;;;;;;;82.40;29.52;;;8.50;99.90;;;;;;5018411;28;20121;-64
2022/12/21 11:11:32;;;;;;;76.95;30.17;;;8.60;99.90;;;;;;5025303;28;20081;-63
2022/12/21 11:14:12;;;;;;;79.27;29.10;;;8.50;99.90;;;;;;5018859;28;20053;-64
2022/12/21 11:16:38;;;;;;;75.93;29.23;;;8.60;99.90;;;;;;5020603;28;20029;-64
2022/12/21 11:19:10;;;;;;;61.45;26.92;;;8.60;99.90;;;;;;5018472;28;20041;-64
2022/12/21 11:21:45;;;;;;;72.80;28.67;;;8.60;99.90;;;;;;5026876;28;20043;-64
2022/12/21 11:24:13;;;;;;;;;;;8.60;99.90;;;;;;5021099;28;20041;-64
2022/12/21 11:26:45;;;;;;;66.38;26.00;;;8.60;99.90;;;;;;5025359;28;19916;-65
2022/12/21 11:29:26;;;;;;;61.88;27.23;;;8.70;99.90;;;;;;5016501;28;20056;-64
2022/12/21 11:31:54;;;;;;;73.75;27.88;;;8.70;99.90;;;;;;5027814;28;20041;-64
2022/12/21 11:34:36;;;;;;;61.10;27.13;;;8.60;99.90;;;;;;5022797;28;20041;-64
2022/12/21 11:37:26;;;;;;;68.15;27.05;;;8.70;99.90;;;;;;5021829;28;20042;-64
2022/12/21 11:39:55;;;;;;;66.18;28.35;;;8.70;99.90;;;;;;5018934;28;20034;-63
2022/12/21 11:42:23;;;;;;;59.50;27.88;;;8.60;99.90;;;;;;5026972;28;20164;-64
2022/12/21 11:44:51;;;;;;;62.08;27.02;;;8.60;99.90;;;;;;5007521;28;20589;-63
2022/12/21 11:47:35;;;;;;;59.03;26.85;;;8.60;99.90;;;;;;5025976;28;20496;-64
2022/12/21 11:50:24;;;;;;;69.35;27.48;;;8.60;99.90;;;;;;5018582;28;20175;-65
2022/12/21 11:53:06;;;;;;;62.30;25.77;;;8.60;99.90;;;;;;5039890;28;20045;-64
2022/12/21 11:55:44;;;;;;;57.55;25.33;;;8.60;99.90;;;;;;5015143;28;20042;-64
2022/12/21 11:58:20;;;;;;;53.75;25.75;;;8.50;99.90;;;;;;5018451;28;20576;-64
2022/12/21 12:01:10;;;;;;;59.30;26.48;;;8.50;99.90;;;;;;5020944;28;20049;-64
2022/12/21 12:04:21;;;;;;;51.28;24.45;;;8.50;99.90;;;;;;5019938;28;20046;-63
2022/12/21 12:06:52;;;;;;;54.45;25.08;;;8.50;99.90;;;;;;5007152;28;20085;-63
2022/12/21 12:09:24;;;;;;;51.72;24.42;;;8.50;99.90;;;;;;5019506;28;20447;-64
2022/12/21 12:12:05;;;;;;;56.42;25.77;;;8.50;99.90;;;;;;5016904;28;20528;-65
2022/12/21 12:14:39;;;;;;;52.85;24.35;;;8.60;99.90;;;;;;5014085;28;20044;-64
2022/12/21 12:17:24;;;;;;;47.42;23.83;;;8.60;99.90;;;;;;5013972;28;20044;-63
2022/12/21 12:20:01;;;;;;;51.80;24.15;;;8.60;99.90;;;;;;5011842;28;20041;-63
2022/12/21 12:23:06;;;;;;;48.58;23.08;;;8.60;99.90;;;;;;5018870;28;20029;-64
2022/12/21 12:25:42;;;;;;;47.63;23.75;;;8.60;99.90;;;;;;5028854;28;20556;-63
2022/12/21 12:28:58;;;;;;;52.63;23.42;;;8.60;99.90;;;;;;5019457;28;20050;-63
2022/12/21 12:31:45;;;;;;;46.78;22.45;;;8.60;99.90;;;;;;5012943;28;20493;-64
2022/12/21 12:34:32;;;;;;;44.00;22.13;;;8.50;99.90;;;;;;5020220;28;20056;-64
2022/12/21 12:37:19;;;;;;;43.03;21.17;;;8.60;99.90;;;;;;5024157;28;20042;-63
2022/12/21 12:40:09;;;;;;;48.13;21.70;;;8.50;99.90;;;;;;5021490;28;20335;-63
2022/12/21 12:42:49;;;;;;;43.50;21.75;;;8.50;99.90;;;;;;5021523;28;20037;-63
2022/12/21 12:45:32;;;;;;;53.08;23.88;;;8.50;99.90;;;;;;5019574;28;20049;-64
2022/12/21 12:48:23;;;;;;;52.53;24.67;;;8.40;99.90;;;;;;5020595;28;20041;-63
2022/12/21 12:51:00;;;;;;;44.75;23.58;;;8.40;99.90;;;;;;5014581;28;20295;-63
2022/12/21 12:53:58;;;;;;;49.75;24.95;;;8.40;99.90;;;;;;5019958;28;20172;-64
2022/12/21 12:56:47;;;;;;;54.35;24.63;;;8.30;99.90;;;;;;5015057;28;20057;-63
2022/12/21 12:59:37;;;;;;;49.22;25.38;;;8.30;99.90;;;;;;5025770;28;20111;-63
2022/12/21 13:02:14;;;;;;;44.97;22.58;;;8.30;99.90;;;;;;5022121;28;20065;-63
2022/12/21 13:05:05;;;;;;;41.40;22.55;;;8.30;99.90;;;;;;5021957;28;20064;-63
2022/12/21 13:07:55;;;;;;;47.78;24.42;;;8.30;99.90;;;;;;5023097;28;20375;-63
2022/12/21 13:10:51;;;;;;;45.22;22.58;;;8.30;99.90;;;;;;5020904;28;20064;-63